createdAt,value
2017-11-14T00:00:48.533Z,75.13
2017-11-14T00:01:49.136Z,75.42
2017-11-14T00:02:49.734Z,74.85
2017-11-14T00:03:50.334Z,74.85
2017-11-14T00:04:50.934Z,74.76
2017-11-14T00:05:51.534Z,74.38
2017-11-14T00:06:52.132Z,74.57
2017-11-14T00:07:52.733Z,75.04
2017-11-14T00:08:53.334Z,74.95
2017-11-14T00:09:53.966Z,75.04
2017-11-14T00:10:54.565Z,74.95
2017-11-14T00:11:55.168Z,74.95
2017-11-14T00:12:55.774Z,74.95
2017-11-14T00:13:56.391Z,75.13
2017-11-14T00:14:56.973Z,75.42
2017-11-14T00:15:57.578Z,74.95
2017-11-14T00:16:58.175Z,74.76
2017-11-14T00:17:58.783Z,74.95
2017-11-14T00:18:59.405Z,75.32
2017-11-14T00:20:00.008Z,75.13
2017-11-14T00:21:00.617Z,74.95
2017-11-14T00:22:01.219Z,75.13
2017-11-14T00:23:01.817Z,74.85
2017-11-14T00:24:02.414Z,74.19
2017-11-14T00:25:03.016Z,74.47
2017-11-14T00:26:03.616Z,74.47
2017-11-14T00:27:04.218Z,74.76
2017-11-14T00:28:04.813Z,74.66
2017-11-14T00:29:05.419Z,75.04
2017-11-14T00:30:06.055Z,75.04
2017-11-14T00:31:06.653Z,75.04
2017-11-14T00:32:07.254Z,75.04
2017-11-14T00:33:07.856Z,74.95
2017-11-14T00:34:08.457Z,75.04
2017-11-14T00:35:09.055Z,74.28
2017-11-14T00:36:09.658Z,74.47
2017-11-14T00:37:10.261Z,74.38
2017-11-14T00:38:10.856Z,74.38
2017-11-14T00:39:11.455Z,74.38
2017-11-14T00:40:12.056Z,74.38
2017-11-14T00:41:12.685Z,74.57
2017-11-14T00:42:13.323Z,74.85
2017-11-14T00:43:13.922Z,75.04
2017-11-14T00:44:14.522Z,75.04
2017-11-14T00:45:15.126Z,75.04
2017-11-14T00:46:15.729Z,74.95
2017-11-14T00:47:16.332Z,75.04
2017-11-14T00:48:16.931Z,74.38
2017-11-14T00:49:17.529Z,74.47
2017-11-14T00:50:18.130Z,75.32
2017-11-14T00:51:18.729Z,74.47
2017-11-14T00:52:19.330Z,74.57
2017-11-14T00:53:19.930Z,74.47
2017-11-14T00:54:20.533Z,74.57
2017-11-14T00:55:21.130Z,74.28
2017-11-14T00:56:21.731Z,74.76
2017-11-14T00:57:22.332Z,74.47
2017-11-14T00:58:22.933Z,74.47
2017-11-14T00:59:23.530Z,74.47
2017-11-14T01:00:24.164Z,74.10
2017-11-14T01:01:24.765Z,74.76
2017-11-14T02:03:05.605Z,74.57
2017-11-14T02:04:06.203Z,74.19
2017-11-14T02:05:06.808Z,74.10
2017-11-14T02:06:07.404Z,74.10
2017-11-14T02:07:08.007Z,74.47
2017-11-14T02:08:08.609Z,74.47
2017-11-14T02:09:09.210Z,74.57
2017-11-14T02:10:09.816Z,74.57
2017-11-14T02:11:10.415Z,74.28
2017-11-14T02:12:11.013Z,74.57
2017-11-14T02:13:11.614Z,74.28
2017-11-14T02:14:12.214Z,74.47
2017-11-14T02:15:12.818Z,74.38
2017-11-14T02:16:13.416Z,74.38
2017-11-14T02:17:14.019Z,74.47
2017-11-14T02:18:14.653Z,74.47
2017-11-14T02:19:15.253Z,74.57
2017-11-14T02:20:15.855Z,74.57
2017-11-14T02:21:16.459Z,74.57
2017-11-14T02:22:17.058Z,73.91
2017-11-14T02:23:17.655Z,74.28
2017-11-14T02:24:18.262Z,74.28
2017-11-14T02:25:18.857Z,74.47
2017-11-14T02:26:19.457Z,74.57
2017-11-14T02:27:20.059Z,74.10
2017-11-14T02:28:20.689Z,73.91
2017-11-14T02:29:21.320Z,74.28
2017-11-14T02:30:21.919Z,74.38
2017-11-14T02:31:22.519Z,74.10
2017-11-14T02:32:23.118Z,74.47
2017-11-14T02:33:23.724Z,74.57
2017-11-14T02:34:24.325Z,74.47
2017-11-14T02:35:24.936Z,74.28
2017-11-14T02:36:25.526Z,74.28
2017-11-14T02:37:26.129Z,74.28
2017-11-14T02:38:26.732Z,74.19
2017-11-14T02:39:27.334Z,74.28
2017-11-14T02:40:27.931Z,74.28
2017-11-14T02:41:28.537Z,74.19
2017-11-14T02:42:29.136Z,74.19
2017-11-14T02:43:29.733Z,73.91
2017-11-14T02:44:30.335Z,73.91
2017-11-14T02:45:30.935Z,74.47
2017-11-14T02:46:31.536Z,74.19
2017-11-14T02:47:32.142Z,73.81
2017-11-14T02:48:32.740Z,73.91
2017-11-14T02:49:33.342Z,73.91
2017-11-14T02:50:33.944Z,73.53
2017-11-14T02:51:34.548Z,73.91
2017-11-14T02:52:35.149Z,73.91
2017-11-14T02:53:35.754Z,73.81
2017-11-14T02:54:36.352Z,74.10
2017-11-14T02:55:36.948Z,73.91
2017-11-14T02:56:37.581Z,73.91
2017-11-14T02:57:38.189Z,73.91
2017-11-14T02:58:38.779Z,74.00
2017-11-14T02:59:39.410Z,73.91
2017-11-14T03:00:40.009Z,74.00
2017-11-14T03:01:40.608Z,73.62
2017-11-14T03:02:41.212Z,73.91
2017-11-14T03:03:41.846Z,74.00
2017-11-14T03:04:42.441Z,73.91
2017-11-14T03:05:43.040Z,74.10
2017-11-14T03:06:43.650Z,74.10
2017-11-14T03:07:44.276Z,74.10
2017-11-14T03:08:44.883Z,73.81
2017-11-14T03:09:45.489Z,73.81
2017-11-14T03:10:46.091Z,73.81
2017-11-14T03:11:46.690Z,73.91
2017-11-14T03:12:47.328Z,73.91
2017-11-14T03:13:47.924Z,74.00
2017-11-14T03:14:48.539Z,74.10
2017-11-14T03:15:49.132Z,74.10
2017-11-14T03:16:49.732Z,74.00
2017-11-14T03:17:50.334Z,73.91
2017-11-14T03:18:50.931Z,73.81
2017-11-14T03:19:51.560Z,73.91
2017-11-14T03:20:52.134Z,73.81
2017-11-14T03:21:52.734Z,73.81
2017-11-14T03:22:53.332Z,73.81
2017-11-14T03:23:53.932Z,74.10
2017-11-14T03:24:54.536Z,74.00
2017-11-14T03:25:55.135Z,74.10
2017-11-14T03:26:55.737Z,74.00
2017-11-14T03:27:56.336Z,74.00
2017-11-14T03:28:56.935Z,73.91
2017-11-14T03:29:57.535Z,73.91
2017-11-14T03:30:58.139Z,74.10
2017-11-14T03:31:58.743Z,73.53
2017-11-14T03:32:59.377Z,73.62
2017-11-14T03:33:59.974Z,73.25
2017-11-14T03:35:00.572Z,73.81
2017-11-14T03:36:01.178Z,73.62
2017-11-14T03:37:01.781Z,73.81
2017-11-14T03:38:02.381Z,74.00
2017-11-14T03:39:02.984Z,73.81
2017-11-14T03:40:03.613Z,73.72
2017-11-14T03:41:04.250Z,73.96
2017-11-14T03:42:04.853Z,73.81
2017-11-14T03:43:05.449Z,74.00
2017-11-14T03:44:06.048Z,74.05
2017-11-14T03:45:06.649Z,73.91
2017-11-14T03:46:07.248Z,73.72
2017-11-14T03:47:07.846Z,73.72
2017-11-14T03:48:08.462Z,73.43
2017-11-14T03:49:09.076Z,73.30
2017-11-14T03:50:09.676Z,73.43
2017-11-14T03:51:10.307Z,73.34
2017-11-14T03:52:10.913Z,73.30
2017-11-14T03:53:11.508Z,73.49
2017-11-14T03:54:12.108Z,73.49
2017-11-14T03:55:12.715Z,73.53
2017-11-14T03:56:13.322Z,73.58
2017-11-14T03:57:13.953Z,73.49
2017-11-14T03:58:14.551Z,73.49
2017-11-14T03:59:15.151Z,73.11
2017-11-14T04:00:15.751Z,73.11
2017-11-14T04:01:16.351Z,73.49
2017-11-14T04:02:16.960Z,73.02
2017-11-14T04:03:17.550Z,73.11
2017-11-14T04:04:18.148Z,73.49
2017-11-14T04:05:18.777Z,73.68
2017-11-14T04:06:19.381Z,73.58
2017-11-14T04:07:19.981Z,73.11
2017-11-14T04:08:20.582Z,73.30
2017-11-14T04:09:21.188Z,73.30
2017-11-14T04:10:21.786Z,73.30
2017-11-14T04:11:22.384Z,73.39
2017-11-14T04:12:22.985Z,73.11
2017-11-14T04:13:23.588Z,73.21
2017-11-14T04:14:24.208Z,73.30
2017-11-14T04:15:24.785Z,73.21
2017-11-14T04:16:25.416Z,73.21
2017-11-14T04:17:26.013Z,73.39
2017-11-14T04:18:26.612Z,73.21
2017-11-14T04:19:27.248Z,73.39
2017-11-14T04:20:27.844Z,73.39
2017-11-14T04:21:28.444Z,73.39
2017-11-14T04:22:29.044Z,73.30
2017-11-14T04:23:29.645Z,73.30
2017-11-14T04:24:30.286Z,73.39
2017-11-14T04:25:30.879Z,73.49
2017-11-14T04:26:31.480Z,73.58
2017-11-14T04:27:32.085Z,73.39
2017-11-14T04:28:32.685Z,73.02
2017-11-14T04:29:33.313Z,73.21
2017-11-14T04:30:33.913Z,73.21
2017-11-14T04:31:34.523Z,73.30
2017-11-14T04:32:35.116Z,73.21
2017-11-14T04:33:35.720Z,73.11
2017-11-14T04:34:36.324Z,73.02
2017-11-14T04:35:36.919Z,73.21
2017-11-14T04:36:37.548Z,73.11
2017-11-14T04:37:38.151Z,73.11
2017-11-14T04:38:38.757Z,73.21
2017-11-14T04:39:39.353Z,73.11
2017-11-14T04:40:39.953Z,72.64
2017-11-14T04:41:40.553Z,72.64
2017-11-14T04:42:41.152Z,72.83
2017-11-14T04:43:41.753Z,72.74
2017-11-14T04:44:42.352Z,72.64
2017-11-14T04:45:42.959Z,72.64
2017-11-14T04:46:43.558Z,73.11
2017-11-14T04:47:44.192Z,73.02
2017-11-14T04:48:44.789Z,73.21
2017-11-14T04:49:45.397Z,73.11
2017-11-14T04:50:45.992Z,72.83
2017-11-14T04:51:46.627Z,72.64
2017-11-14T04:52:47.260Z,72.83
2017-11-14T04:53:47.865Z,73.02
2017-11-14T04:54:48.495Z,73.02
2017-11-14T04:55:49.094Z,73.02
2017-11-14T04:56:49.731Z,72.92
2017-11-14T04:57:50.365Z,72.64
2017-11-14T04:58:50.965Z,72.74
2017-11-14T04:59:51.563Z,72.55
2017-11-14T05:00:52.162Z,72.74
2017-11-14T05:01:52.762Z,72.55
2017-11-14T05:02:53.361Z,72.83
2017-11-14T05:03:53.965Z,72.92
2017-11-14T05:04:54.563Z,72.74
2017-11-14T05:05:55.168Z,72.92
2017-11-14T05:06:55.796Z,72.64
2017-11-14T05:07:56.398Z,72.83
2017-11-14T05:08:57.004Z,72.64
2017-11-14T05:09:57.604Z,72.83
2017-11-14T05:10:58.201Z,72.74
2017-11-14T05:11:58.802Z,72.55
2017-11-14T05:12:59.403Z,72.74
2017-11-14T05:14:00.001Z,72.92
2017-11-14T05:15:00.605Z,72.74
2017-11-14T05:16:01.206Z,72.64
2017-11-14T05:17:01.813Z,73.21
2017-11-14T05:18:02.440Z,73.39
2017-11-14T05:19:03.039Z,73.30
2017-11-14T05:20:03.645Z,73.11
2017-11-14T05:21:04.273Z,73.11
2017-11-14T05:22:04.871Z,73.21
2017-11-14T05:23:05.477Z,73.02
2017-11-14T05:24:06.102Z,73.11
2017-11-14T05:25:06.703Z,73.02
2017-11-14T05:26:07.301Z,73.21
2017-11-14T05:27:07.900Z,73.02
2017-11-14T05:28:08.500Z,73.30
2017-11-14T05:29:09.104Z,73.39
2017-11-14T05:30:09.710Z,73.21
2017-11-14T05:31:10.304Z,73.11
2017-11-14T05:32:10.910Z,73.11
2017-11-14T05:33:11.541Z,73.30
2017-11-14T05:34:12.141Z,73.39
2017-11-14T05:35:12.740Z,73.21
2017-11-14T05:36:13.342Z,73.30
2017-11-14T05:37:13.943Z,73.21
2017-11-14T05:38:14.546Z,73.30
2017-11-14T05:39:15.144Z,73.21
2017-11-14T05:40:15.743Z,72.64
2017-11-14T05:41:16.351Z,72.83
2017-11-14T05:42:16.968Z,72.92
2017-11-14T05:43:17.606Z,72.83
2017-11-14T05:44:18.209Z,72.83
2017-11-14T05:45:18.802Z,73.02
2017-11-14T05:46:19.400Z,72.83
2017-11-14T05:47:20.002Z,72.74
2017-11-14T05:48:20.601Z,73.02
2017-11-14T05:49:21.202Z,73.39
2017-11-14T05:50:21.809Z,73.21
2017-11-14T05:51:22.404Z,73.30
2017-11-14T05:52:23.007Z,73.02
2017-11-14T05:53:23.605Z,73.30
2017-11-14T05:54:24.203Z,73.02
2017-11-14T05:55:24.831Z,73.11
2017-11-14T05:56:25.432Z,73.11
2017-11-14T05:57:26.030Z,73.49
2017-11-14T05:58:26.632Z,73.39
2017-11-14T05:59:27.232Z,73.21
2017-11-14T06:00:27.833Z,73.30
2017-11-14T06:01:28.437Z,73.30
2017-11-14T06:02:29.041Z,73.30
2017-11-14T06:03:29.637Z,73.02
2017-11-14T06:04:30.236Z,73.39
2017-11-14T06:05:30.833Z,73.58
2017-11-14T06:06:31.434Z,73.21
2017-11-14T06:07:32.061Z,73.49
2017-11-14T06:08:32.660Z,73.77
2017-11-14T06:09:33.266Z,73.30
2017-11-14T06:10:33.863Z,73.21
2017-11-14T06:11:34.462Z,73.21
2017-11-14T06:12:35.060Z,73.30
2017-11-14T06:13:35.658Z,73.21
2017-11-14T06:14:36.257Z,73.87
2017-11-14T06:15:36.886Z,73.58
2017-11-14T06:16:37.527Z,73.58
2017-11-14T06:17:38.156Z,73.58
2017-11-14T06:18:38.758Z,73.77
2017-11-14T06:19:39.357Z,73.68
2017-11-14T06:20:39.958Z,73.68
2017-11-14T06:21:40.558Z,73.30
2017-11-14T06:22:41.185Z,73.49
2017-11-14T06:23:41.793Z,73.30
2017-11-14T06:24:42.389Z,73.30
2017-11-14T06:25:43.007Z,73.30
2017-11-14T06:26:43.588Z,73.21
2017-11-14T06:27:44.190Z,73.30
2017-11-14T06:28:44.793Z,73.21
2017-11-14T06:29:45.392Z,73.49
2017-11-14T06:30:46.049Z,73.21
2017-11-14T06:31:46.666Z,73.30
2017-11-14T06:32:47.301Z,73.49
2017-11-14T06:33:47.906Z,73.49
2017-11-14T06:34:48.505Z,73.39
2017-11-14T06:35:49.110Z,73.21
2017-11-14T06:36:49.708Z,73.21
2017-11-14T06:37:50.312Z,73.58
2017-11-14T06:38:50.912Z,73.49
2017-11-14T06:39:51.522Z,73.49
2017-11-14T06:40:52.113Z,73.49
2017-11-14T06:41:52.714Z,73.49
2017-11-14T06:42:53.314Z,73.58
2017-11-14T06:43:53.921Z,73.58
2017-11-14T06:44:54.551Z,73.58
2017-11-14T06:45:55.155Z,73.21
2017-11-14T06:46:55.755Z,73.39
2017-11-14T06:47:56.364Z,73.21
2017-11-14T06:48:56.961Z,73.39
2017-11-14T06:49:57.561Z,73.39
2017-11-14T06:50:58.163Z,73.58
2017-11-14T06:51:58.794Z,73.49
2017-11-14T06:52:59.409Z,73.39
2017-11-14T06:54:00.029Z,73.30
2017-11-14T06:55:00.633Z,73.39
2017-11-14T06:56:01.231Z,73.39
2017-11-14T06:57:01.860Z,73.49
2017-11-14T06:58:02.461Z,73.49
2017-11-14T06:59:03.061Z,73.30
2017-11-14T07:00:03.665Z,73.21
2017-11-14T07:01:04.268Z,73.11
2017-11-14T07:02:04.867Z,73.30
2017-11-14T07:03:05.471Z,73.49
2017-11-14T07:04:06.070Z,73.39
2017-11-14T07:05:06.670Z,73.39
2017-11-14T07:06:07.278Z,73.39
2017-11-14T07:07:07.876Z,73.49
2017-11-14T07:08:08.478Z,73.21
2017-11-14T07:09:09.081Z,73.21
2017-11-14T07:10:09.683Z,73.30
2017-11-14T07:11:10.289Z,73.11
2017-11-14T07:12:10.888Z,73.11
2017-11-14T07:13:11.489Z,73.39
2017-11-14T07:14:12.094Z,73.39
2017-11-14T07:15:12.699Z,73.11
2017-11-14T07:16:13.306Z,73.39
2017-11-14T07:17:13.904Z,73.30
2017-11-14T07:18:14.510Z,73.49
2017-11-14T07:19:15.112Z,73.02
2017-11-14T07:20:15.744Z,73.11
2017-11-14T07:21:16.348Z,73.11
2017-11-14T07:22:16.955Z,73.30
2017-11-14T07:23:17.553Z,73.21
2017-11-14T07:24:18.160Z,73.02
2017-11-14T07:25:18.766Z,72.64
2017-11-14T07:26:19.405Z,73.21
2017-11-14T07:27:20.037Z,72.64
2017-11-14T07:28:20.670Z,73.02
2017-11-14T07:29:21.281Z,73.30
2017-11-14T07:30:21.896Z,73.02
2017-11-14T07:31:22.488Z,73.02
2017-11-14T07:32:23.088Z,73.21
2017-11-14T07:33:23.725Z,72.92
2017-11-14T07:34:24.322Z,72.83
2017-11-14T07:35:24.935Z,73.30
2017-11-14T07:36:25.535Z,73.02
2017-11-14T07:37:26.139Z,73.21
2017-11-14T07:38:26.737Z,73.30
2017-11-14T07:39:27.347Z,73.21
2017-11-14T07:40:27.943Z,73.11
2017-11-14T07:41:28.552Z,72.92
2017-11-14T07:42:29.150Z,73.21
2017-11-14T07:43:29.754Z,73.21
2017-11-14T07:44:30.356Z,73.02
2017-11-14T07:45:30.988Z,73.02
2017-11-14T07:46:31.595Z,73.11
2017-11-14T07:47:32.193Z,73.21
2017-11-14T07:48:32.797Z,73.02
2017-11-14T07:49:33.399Z,72.83
2017-11-14T07:50:33.999Z,72.83
2017-11-14T07:51:34.601Z,72.92
2017-11-14T07:52:35.205Z,72.83
2017-11-14T07:53:35.806Z,73.39
2017-11-14T07:54:36.437Z,73.30
2017-11-14T07:55:37.038Z,73.11
2017-11-14T07:56:37.646Z,72.64
2017-11-14T07:57:38.247Z,72.83
2017-11-14T07:58:38.849Z,72.64
2017-11-14T07:59:39.452Z,73.02
2017-11-14T08:00:40.056Z,73.30
2017-11-14T08:01:40.659Z,73.11
2017-11-14T08:02:41.264Z,73.15
2017-11-14T08:03:41.898Z,73.25
2017-11-14T08:04:42.503Z,73.15
2017-11-14T08:05:43.105Z,73.25
2017-11-14T08:06:43.714Z,73.06
2017-11-14T08:07:44.314Z,73.25
2017-11-14T08:08:44.920Z,73.43
2017-11-14T08:09:45.530Z,73.53
2017-11-14T08:10:46.133Z,73.53
2017-11-14T08:11:46.735Z,73.34
2017-11-14T08:12:47.336Z,73.72
2017-11-14T08:13:47.942Z,73.43
2017-11-14T08:14:48.550Z,73.06
2017-11-14T08:15:49.151Z,73.25
2017-11-14T08:16:49.756Z,73.43
2017-11-14T08:17:50.359Z,73.10
2017-11-14T08:18:50.965Z,73.47
2017-11-14T08:19:51.570Z,73.10
2017-11-14T08:20:52.175Z,73.00
2017-11-14T08:21:52.778Z,72.81
2017-11-14T08:22:53.382Z,72.62
2017-11-14T08:23:53.992Z,72.44
2017-11-14T08:24:54.596Z,72.62
2017-11-14T08:25:55.197Z,72.34
2017-11-14T08:26:55.803Z,72.72
2017-11-14T08:27:56.412Z,72.15
2017-11-14T08:28:57.016Z,72.06
2017-11-14T08:29:57.622Z,71.96
2017-11-14T08:30:58.228Z,71.77
2017-11-14T08:31:58.839Z,71.87
2017-11-14T08:32:59.444Z,72.06
2017-11-14T08:34:00.057Z,72.25
2017-11-14T08:35:00.660Z,72.28
2017-11-14T08:36:01.265Z,71.81
2017-11-14T08:37:01.876Z,72.19
2017-11-14T08:38:02.483Z,72.09
2017-11-14T08:39:03.091Z,72.09
2017-11-14T08:40:03.694Z,72.09
2017-11-14T08:41:04.299Z,72.19
2017-11-14T08:42:04.913Z,72.09
2017-11-14T08:43:05.514Z,72.09
2017-11-14T08:44:06.122Z,71.91
2017-11-14T08:45:06.757Z,72.00
2017-11-14T08:46:07.363Z,71.91
2017-11-14T08:47:07.980Z,71.62
2017-11-14T08:48:08.612Z,71.43
2017-11-14T08:49:09.219Z,71.81
2017-11-14T08:50:09.858Z,71.53
2017-11-14T08:51:10.465Z,71.43
2017-11-14T08:52:11.071Z,71.43
2017-11-14T08:53:11.677Z,71.15
2017-11-14T08:54:12.283Z,70.77
2017-11-14T08:55:12.895Z,70.90
2017-11-14T08:56:13.500Z,70.81
2017-11-14T08:57:14.110Z,71.66
2017-11-14T08:58:14.720Z,71.37
2017-11-14T08:59:15.323Z,71.37
2017-11-14T09:00:15.975Z,71.28
2017-11-14T09:01:16.572Z,71.00
2017-11-14T09:02:17.179Z,71.09
2017-11-14T09:03:17.788Z,71.37
2017-11-14T09:04:18.405Z,71.19
2017-11-14T09:05:19.005Z,70.81
2017-11-14T09:06:19.644Z,70.53
2017-11-14T09:07:20.252Z,70.34
2017-11-14T09:08:20.860Z,70.81
2017-11-14T09:09:21.467Z,70.15
2017-11-14T09:10:22.080Z,69.77
2017-11-14T09:11:22.686Z,70.05
2017-11-14T09:12:23.293Z,69.96
2017-11-14T09:13:23.901Z,70.15
2017-11-14T09:14:24.509Z,70.62
2017-11-14T09:15:25.117Z,70.62
2017-11-14T09:16:25.726Z,70.94
2017-11-14T09:17:26.365Z,70.65
2017-11-14T09:18:26.981Z,70.47
2017-11-14T09:19:27.589Z,69.90
2017-11-14T09:20:28.195Z,69.62
2017-11-14T09:21:28.804Z,70.28
2017-11-14T09:22:29.441Z,70.37
2017-11-14T09:23:30.051Z,70.09
2017-11-14T09:24:30.660Z,69.43
2017-11-14T09:25:31.267Z,68.48
2017-11-14T09:26:31.877Z,67.82
2017-11-14T09:27:32.486Z,68.01
2017-11-14T09:28:33.100Z,69.71
2017-11-14T09:29:33.704Z,69.24
2017-11-14T09:30:34.311Z,69.52
2017-11-14T09:31:34.950Z,69.62
2017-11-14T09:32:35.560Z,69.05
2017-11-14T09:33:36.170Z,69.81
2017-11-14T09:34:36.780Z,69.62
2017-11-14T09:35:37.404Z,70.00
2017-11-14T09:36:38.004Z,70.03
2017-11-14T09:37:38.616Z,69.56
2017-11-14T09:38:39.228Z,70.21
2017-11-14T09:39:39.837Z,69.93
2017-11-14T09:40:40.469Z,70.21
2017-11-14T09:41:41.053Z,69.68
2017-11-14T09:42:41.701Z,69.02
2017-11-14T09:43:42.301Z,68.55
2017-11-14T09:44:42.910Z,68.08
2017-11-14T09:45:43.519Z,68.08
2017-11-14T09:46:44.128Z,68.27
2017-11-14T09:47:44.789Z,67.89
2017-11-14T09:48:45.397Z,67.51
2017-11-14T09:49:46.041Z,67.51
2017-11-14T09:50:46.650Z,67.41
2017-11-14T09:51:47.259Z,67.89
2017-11-14T09:52:47.871Z,68.17
2017-11-14T09:53:48.486Z,68.17
2017-11-14T09:54:49.091Z,68.12
2017-11-14T09:55:49.731Z,68.02
2017-11-14T09:56:50.347Z,67.83
2017-11-14T09:57:50.999Z,67.17
2017-11-14T09:58:51.608Z,66.22
2017-11-14T09:59:52.221Z,65.75
2017-11-14T10:00:52.862Z,65.94
2017-11-14T10:01:53.469Z,66.03
2017-11-14T10:02:54.085Z,65.84
2017-11-14T10:03:54.699Z,66.60
2017-11-14T10:04:55.304Z,66.31
2017-11-14T10:05:55.947Z,65.94
2017-11-14T10:06:56.557Z,65.59
2017-11-14T10:07:57.169Z,65.88
2017-11-14T10:08:57.777Z,65.12
2017-11-14T10:09:58.389Z,64.83
2017-11-14T10:10:59.000Z,64.45
2017-11-14T10:11:59.610Z,63.98
2017-11-14T10:13:00.220Z,64.93
2017-11-14T10:14:00.835Z,64.93
2017-11-14T10:15:01.474Z,64.36
2017-11-14T10:16:02.098Z,64.07
2017-11-14T10:17:02.700Z,63.57
2017-11-14T10:18:03.315Z,63.85
2017-11-14T10:19:03.927Z,64.64
2017-11-14T10:20:04.540Z,65.31
2017-11-14T10:21:05.151Z,65.12
2017-11-14T10:22:05.793Z,64.55
2017-11-14T10:23:06.453Z,64.83
2017-11-14T10:24:07.064Z,64.93
2017-11-14T10:25:07.673Z,64.77
2017-11-14T10:26:08.289Z,64.20
2017-11-14T10:27:08.895Z,63.73
2017-11-14T10:28:09.557Z,63.26
2017-11-14T10:29:10.198Z,63.64
2017-11-14T10:30:10.814Z,62.28
2017-11-14T10:31:11.424Z,62.66
2017-11-14T10:32:12.045Z,62.47
2017-11-14T10:33:12.649Z,62.37
2017-11-14T10:34:13.261Z,63.60
2017-11-14T10:35:13.872Z,63.89
2017-11-14T10:36:14.494Z,63.60
2017-11-14T10:37:15.138Z,63.60
2017-11-14T10:38:15.782Z,63.70
2017-11-14T10:39:16.394Z,64.20
2017-11-14T10:40:17.005Z,64.96
2017-11-14T10:41:17.623Z,65.44
2017-11-14T10:42:18.228Z,65.28
2017-11-14T10:43:18.842Z,64.23
2017-11-14T10:44:19.455Z,62.72
2017-11-14T10:45:20.066Z,62.43
2017-11-14T10:46:20.682Z,62.05
2017-11-14T10:47:21.293Z,61.87
2017-11-14T10:48:21.905Z,61.21
2017-11-14T10:49:22.518Z,61.68
2017-11-14T10:50:23.132Z,62.34
2017-11-14T10:51:23.742Z,62.43
2017-11-14T10:52:24.363Z,63.39
2017-11-14T10:53:24.967Z,63.57
2017-11-14T10:54:25.580Z,64.17
2017-11-14T10:55:26.192Z,63.70
2017-11-14T10:56:26.808Z,63.54
2017-11-14T10:57:27.419Z,62.21
2017-11-14T10:58:28.032Z,60.89
2017-11-14T10:59:28.644Z,60.28
2017-11-14T11:00:29.256Z,59.15
2017-11-14T11:01:29.869Z,59.25
2017-11-14T11:02:30.483Z,60.00
2017-11-14T11:03:31.102Z,60.57
2017-11-14T11:04:31.710Z,61.14
2017-11-14T11:05:32.326Z,61.14
2017-11-14T11:06:32.942Z,60.28
2017-11-14T11:07:33.589Z,60.10
2017-11-14T11:08:34.200Z,60.28
2017-11-14T11:09:34.815Z,61.05
2017-11-14T11:10:35.427Z,62.28
2017-11-14T11:11:36.042Z,62.88
2017-11-14T11:12:36.661Z,62.50
2017-11-14T11:13:37.272Z,61.87
2017-11-14T11:14:37.884Z,61.30
2017-11-14T11:15:38.502Z,60.16
2017-11-14T11:16:39.114Z,59.40
2017-11-14T11:17:39.728Z,59.21
2017-11-14T11:18:40.340Z,59.40
2017-11-14T11:19:40.954Z,59.30
2017-11-14T11:20:41.566Z,58.80
2017-11-14T11:21:42.216Z,58.80
2017-11-14T11:22:42.830Z,58.42
2017-11-14T11:23:43.441Z,59.18
2017-11-14T11:24:44.055Z,60.53
2017-11-14T11:25:44.675Z,61.01
2017-11-14T11:26:45.284Z,61.39
2017-11-14T11:27:45.898Z,61.33
2017-11-14T11:28:46.518Z,61.42
2017-11-14T11:29:47.131Z,60.50
2017-11-14T11:30:47.746Z,58.39
2017-11-14T11:31:48.391Z,58.48
2017-11-14T11:32:49.004Z,58.48
2017-11-14T11:33:49.621Z,58.10
2017-11-14T11:34:50.235Z,58.39
2017-11-14T11:35:50.849Z,58.45
2017-11-14T11:36:51.462Z,58.07
2017-11-14T11:37:52.077Z,58.64
2017-11-14T11:38:52.691Z,59.40
2017-11-14T11:39:53.305Z,59.91
2017-11-14T11:40:53.920Z,59.24
2017-11-14T11:41:54.539Z,58.48
2017-11-14T11:42:55.152Z,58.26
2017-11-14T11:43:55.804Z,58.95
2017-11-14T11:44:56.448Z,58.54
2017-11-14T11:45:57.069Z,57.21
2017-11-14T11:46:57.684Z,57.03
2017-11-14T11:47:58.296Z,57.47
2017-11-14T11:48:58.909Z,58.04
2017-11-14T11:49:59.554Z,58.61
2017-11-14T11:51:00.170Z,58.83
2017-11-14T11:52:00.790Z,59.30
2017-11-14T11:53:01.408Z,59.24
2017-11-14T11:54:02.017Z,58.76
2017-11-14T11:55:02.633Z,58.39
2017-11-14T11:56:03.248Z,58.29
2017-11-14T11:57:03.862Z,59.17
2017-11-14T11:58:04.477Z,58.89
2017-11-14T11:59:05.092Z,57.94
2017-11-14T12:00:05.712Z,56.89
2017-11-14T12:01:06.326Z,56.04
2017-11-14T12:02:06.972Z,56.23
2017-11-14T12:03:07.591Z,57.18
2017-11-14T12:04:08.203Z,56.80
2017-11-14T12:05:08.851Z,57.15
2017-11-14T12:06:09.471Z,56.29
2017-11-14T12:07:10.118Z,56.58
2017-11-14T12:08:10.730Z,56.29
2017-11-14T12:09:11.344Z,57.62
2017-11-14T12:10:11.961Z,57.24
2017-11-14T12:11:12.580Z,57.56
2017-11-14T12:12:13.189Z,56.68
2017-11-14T12:13:13.807Z,56.10
2017-11-14T12:14:14.421Z,55.91
2017-11-14T12:15:15.068Z,56.29
2017-11-14T12:16:15.685Z,56.96
2017-11-14T12:17:16.301Z,56.29
2017-11-14T12:18:16.915Z,56.20
2017-11-14T12:19:17.533Z,56.29
2017-11-14T12:20:18.147Z,56.29
2017-11-14T12:21:18.775Z,56.96
2017-11-14T12:22:19.380Z,57.15
2017-11-14T12:23:20.000Z,57.34
2017-11-14T12:24:20.651Z,56.87
2017-11-14T12:25:21.300Z,56.39
2017-11-14T12:26:21.918Z,56.49
2017-11-14T12:27:22.533Z,57.18
2017-11-14T12:28:23.178Z,58.22
2017-11-14T12:29:23.822Z,58.06
2017-11-14T12:30:24.440Z,58.06
2017-11-14T12:31:25.053Z,57.90
2017-11-14T12:32:25.667Z,58.09
2017-11-14T12:33:26.284Z,57.24
2017-11-14T12:34:26.904Z,56.12
2017-11-14T12:35:27.517Z,56.51
2017-11-14T12:36:28.133Z,56.51
2017-11-14T12:37:28.754Z,56.31
2017-11-14T12:38:29.368Z,56.24
2017-11-14T12:39:29.983Z,55.96
2017-11-14T12:40:30.598Z,55.20
2017-11-14T12:41:31.218Z,54.79
2017-11-14T12:42:31.839Z,55.27
2017-11-14T12:43:32.452Z,55.46
2017-11-14T12:44:33.068Z,56.72
2017-11-14T12:45:33.683Z,56.72
2017-11-14T12:46:34.303Z,56.65
2017-11-14T12:47:34.927Z,56.56
2017-11-14T12:48:35.573Z,56.18
2017-11-14T12:49:36.191Z,55.83
2017-11-14T12:50:36.807Z,55.54
2017-11-14T12:51:37.429Z,55.16
2017-11-14T12:52:38.054Z,55.38
2017-11-14T12:53:38.666Z,54.90
2017-11-14T12:54:39.288Z,54.04
2017-11-14T12:55:39.906Z,53.56
2017-11-14T12:56:40.536Z,53.28
2017-11-14T12:57:41.151Z,52.52
2017-11-14T12:58:41.818Z,52.90
2017-11-14T12:59:42.418Z,51.92
2017-11-14T13:00:43.039Z,52.30
2017-11-14T13:01:43.656Z,52.18
2017-11-14T13:02:44.275Z,52.47
2017-11-14T13:03:44.893Z,52.34
2017-11-14T13:04:45.510Z,52.72
2017-11-14T13:05:46.142Z,53.11
2017-11-14T13:06:46.745Z,53.30
2017-11-14T13:07:47.363Z,53.20
2017-11-14T13:08:47.980Z,52.70
2017-11-14T13:09:48.598Z,52.22
2017-11-14T13:10:49.217Z,53.17
2017-11-14T13:11:49.834Z,53.84
2017-11-14T13:12:50.486Z,53.65
2017-11-14T13:13:51.100Z,53.84
2017-11-14T13:14:51.719Z,54.32
2017-11-14T13:15:52.336Z,55.10
2017-11-14T13:16:52.984Z,55.39
2017-11-14T13:17:53.633Z,55.04
2017-11-14T13:18:54.253Z,54.66
2017-11-14T13:19:54.876Z,54.59
2017-11-14T13:20:55.497Z,54.30
2017-11-14T13:21:56.145Z,53.95
2017-11-14T13:22:56.767Z,53.00
2017-11-14T13:23:57.384Z,52.23
2017-11-14T13:24:58.009Z,51.06
2017-11-14T13:25:58.657Z,50.78
2017-11-14T13:26:59.281Z,51.80
2017-11-14T13:27:59.894Z,52.78
2017-11-14T13:29:00.550Z,53.25
2017-11-14T13:30:01.168Z,52.49
2017-11-14T13:31:01.795Z,52.40
2017-11-14T13:32:02.416Z,52.20
2017-11-14T13:33:03.039Z,51.92
2017-11-14T13:34:03.653Z,51.35
2017-11-14T13:35:04.275Z,51.54
2017-11-14T13:36:04.898Z,51.23
2017-11-14T13:37:05.521Z,50.75
2017-11-14T13:38:06.146Z,51.01
2017-11-14T13:39:06.759Z,50.92
2017-11-14T13:40:07.374Z,51.68
2017-11-14T13:41:07.993Z,52.34
2017-11-14T13:42:08.616Z,52.25
2017-11-14T13:43:09.232Z,51.87
2017-11-14T13:44:09.855Z,51.93
2017-11-14T13:45:10.502Z,50.89
2017-11-14T13:46:11.122Z,50.89
2017-11-14T13:47:11.745Z,51.75
2017-11-14T13:48:12.391Z,52.41
2017-11-14T13:49:13.009Z,52.22
2017-11-14T13:50:13.631Z,52.61
2017-11-14T13:51:14.252Z,52.61
2017-11-14T13:52:14.880Z,51.75
2017-11-14T13:53:15.489Z,51.93
2017-11-14T13:54:16.103Z,51.08
2017-11-14T13:55:16.721Z,51.15
2017-11-14T13:56:17.340Z,51.06
2017-11-14T13:57:17.956Z,51.91
2017-11-14T13:58:18.578Z,52.29
2017-11-14T13:59:19.198Z,53.15
2017-11-14T14:00:19.816Z,53.75
2017-11-14T14:01:20.436Z,53.49